Time;durP1;ratioP1;P1;durP2;ratioP2;P2;SDS_P1;SDS_P2;PMS_P1;PMS_P2;Temp;Humidity;BMP_temperature;BMP_pressure;BME280_temperature;BME280_humidity;BME280_pressure;Samples;Min_cycle;Max_cycle;Signal;HPM_P1;HPM_P2
2023/04/20 00:00:27;;;;;;;;;11.75;9.75;;;;;15.88;39.77;101133.78;5058843;28;45363;-57
2023/04/20 00:02:53;;;;;;;;;12.00;10.25;;;;;15.86;39.27;101130.31;5059662;28;45398;-57
2023/04/20 00:05:18;;;;;;;;;7.75;6.75;;;;;15.86;39.63;101140.94;5041932;28;45436;-57
2023/04/20 00:07:43;;;;;;;;;14.00;11.75;;;;;15.85;39.43;101125.94;5059888;28;45241;-57
2023/04/20 00:10:09;;;;;;;;;12.50;10.00;;;;;15.83;39.38;101132.19;5059508;28;46258;-57
2023/04/20 00:12:35;;;;;;;;;13.00;10.00;;;;;15.80;39.51;101130.47;5059369;28;45263;-57
2023/04/20 00:15:00;;;;;;;;;14.25;13.25;;;;;15.76;39.58;101124.41;5059926;28;46560;-57
2023/04/20 00:17:25;;;;;;;;;12.75;10.75;;;;;15.73;39.59;101121.81;5059532;28;45327;-57
2023/04/20 00:19:51;;;;;;;;;11.50;11.25;;;;;15.69;39.33;101116.69;5059634;28;45361;-57
2023/04/20 00:22:16;;;;;;;;;13.00;12.75;;;;;15.65;39.27;101118.53;5058001;28;45264;-57
2023/04/20 00:24:41;;;;;;;;;14.50;13.00;;;;;15.64;39.62;101110.66;5049822;28;45391;-57
2023/04/20 00:27:07;;;;;;;;;12.50;10.25;;;;;15.58;39.08;101104.63;5059361;28;45466;-57
2023/04/20 00:29:32;;;;;;;;;10.75;10.75;;;;;15.56;39.23;101111.72;5058944;28;45250;-57
2023/04/20 00:31:58;;;;;;;;;11.25;10.75;;;;;15.53;39.52;101114.44;5057789;28;45945;-57
2023/04/20 00:34:23;;;;;;;;;8.75;8.75;;;;;15.52;39.41;101112.75;5059337;28;45458;-57
2023/04/20 00:36:48;;;;;;;;;13.00;10.75;;;;;15.48;39.04;101105.78;5059054;28;45363;-57
2023/04/20 00:39:15;;;;;;;;;14.75;13.00;;;;;15.48;39.44;101107.56;5058961;28;46219;-57
2023/04/20 00:41:40;;;;;;;;;13.00;11.75;;;;;15.45;39.35;101097.94;5059184;28;45399;-57
2023/04/20 00:44:12;;;;;;;;;12.25;12.00;;;;;15.42;39.37;101100.66;5059094;28;45371;-57
2023/04/20 00:46:38;;;;;;;;;15.25;12.50;;;;;15.38;39.41;101088.41;5040742;28;45794;-57
2023/04/20 00:49:03;;;;;;;;;14.50;12.00;;;;;15.35;39.45;101088.53;5058839;28;46372;-57
2023/04/20 00:51:30;;;;;;;;;12.25;11.00;;;;;15.33;39.13;101085.03;5041057;28;45430;-57
2023/04/20 00:53:56;;;;;;;;;10.75;8.50;;;;;15.31;39.25;101092.16;5051582;28;45379;-57
2023/04/20 00:56:22;;;;;;;;;11.75;10.00;;;;;15.27;39.24;101091.41;5038095;28;45275;-57
2023/04/20 00:58:47;;;;;;;;;11.00;10.50;;;;;15.26;39.51;101079.91;5037633;28;45420;-57
2023/04/20 01:01:16;;;;;;;;;12.50;11.00;;;;;15.23;39.52;101082.66;5039157;28;45246;-57
2023/04/20 01:03:42;;;;;;;;;12.00;11.00;;;;;15.20;39.43;101090.69;5037535;28;45409;-57
2023/04/20 01:06:08;;;;;;;;;13.75;11.75;;;;;15.19;39.03;101094.22;5039158;28;45336;-57
2023/04/20 01:08:33;;;;;;;;;18.25;15.50;;;;;15.16;39.12;101078.44;5038679;28;45500;-57
2023/04/20 01:10:58;;;;;;;;;12.00;10.00;;;;;15.13;39.54;101085.59;5038598;28;47629;-57
2023/04/20 01:13:24;;;;;;;;;11.75;11.75;;;;;15.11;39.30;101083.84;5042278;28;45636;-57
2023/04/20 01:15:49;;;;;;;;;14.75;12.00;;;;;15.08;39.53;101076.03;5042442;28;45392;-57
2023/04/20 01:18:16;;;;;;;;;12.75;11.25;;;;;15.08;39.68;101078.66;5041996;28;46280;-57
2023/04/20 01:20:42;;;;;;;;;13.00;11.00;;;;;15.06;39.52;101079.63;5042254;28;45304;-57
2023/04/20 01:23:08;;;;;;;;;8.50;8.50;;;;;15.03;39.15;101075.28;5042366;28;45326;-57
2023/04/20 01:25:33;;;;;;;;;10.50;8.50;;;;;15.01;39.44;101085.03;5024429;28;45519;-57
2023/04/20 01:27:59;;;;;;;;;12.25;11.50;;;;;15.00;39.28;101074.50;5060615;28;45916;-56
2023/04/20 01:30:24;;;;;;;;;10.75;10.50;;;;;14.95;39.62;101074.59;5062199;28;45229;-57
2023/04/20 01:32:50;;;;;;;;;11.25;9.25;;;;;14.91;39.46;101080.91;5062059;28;45292;-58
2023/04/20 01:35:15;;;;;;;;;10.50;10.50;;;;;14.90;39.30;101080.00;5062179;28;45384;-57
2023/04/20 01:37:41;;;;;;;;;10.25;9.50;;;;;14.87;39.37;101068.69;5043560;28;46651;-56
2023/04/20 01:40:10;;;;;;;;;10.00;10.00;;;;;14.84;39.80;101069.63;5061541;28;45344;-57
2023/04/20 01:42:36;;;;;;;;;15.25;9.00;;;;;14.83;39.45;101072.28;5062076;28;45454;-56
2023/04/20 01:45:04;;;;;;;;;12.50;10.75;;;;;14.79;39.63;101064.44;5061870;28;45395;-57
2023/04/20 01:47:30;;;;;;;;;8.25;8.00;;;;;14.78;39.22;101065.34;5061557;28;45301;-57
2023/04/20 01:49:55;;;;;;;;;11.25;10.00;;;;;14.76;39.59;101061.00;5061728;28;45175;-56
2023/04/20 01:52:20;;;;;;;;;9.50;8.00;;;;;14.69;39.66;101055.03;5061829;28;45433;-57
2023/04/20 01:54:45;;;;;;;;;11.25;10.00;;;;;14.69;39.20;101056.78;5061646;28;47398;-56
2023/04/20 01:57:11;;;;;;;;;14.00;13.00;;;;;14.66;39.15;101059.53;5061428;28;50261;-57
2023/04/20 01:59:36;;;;;;;;;12.25;10.25;;;;;14.62;39.84;101054.25;5061794;28;48581;-56
2023/04/20 02:02:01;;;;;;;;;12.25;9.25;;;;;14.59;39.36;101062.28;5061518;28;45430;-57
2023/04/20 02:04:27;;;;;;;;;12.25;10.00;;;;;14.56;39.61;101061.50;5061859;28;45408;-57
2023/04/20 02:06:52;;;;;;;;;11.75;9.25;;;;;14.53;39.55;101062.44;5043317;28;46451;-56
2023/04/20 02:09:17;;;;;;;;;12.75;10.25;;;;;14.49;39.33;101059.91;5061687;28;45228;-56
2023/04/20 02:11:43;;;;;;;;;10.00;9.25;;;;;14.47;39.31;101062.59;5061654;28;45349;-57
2023/04/20 02:14:08;;;;;;;;;8.25;8.25;;;;;14.44;39.78;101063.53;5062025;28;45493;-56
2023/04/20 02:16:34;;;;;;;;;8.50;8.50;;;;;14.44;39.58;101075.91;5061046;28;46142;-56
2023/04/20 02:18:59;;;;;;;;;12.75;9.25;;;;;14.38;39.51;101073.41;5061664;28;45262;-57
2023/04/20 02:21:25;;;;;;;;;9.75;8.25;;;;;14.37;39.38;101069.88;5061652;28;45276;-56
2023/04/20 02:23:50;;;;;;;;;9.00;8.50;;;;;14.34;39.73;101071.72;5060579;28;45226;-57
2023/04/20 02:26:15;;;;;;;;;9.50;9.25;;;;;14.32;39.58;101073.56;5061010;28;47972;-57
2023/04/20 02:28:41;;;;;;;;;8.50;6.25;;;;;14.26;39.52;101064.00;5061385;28;45232;-56
2023/04/20 02:31:07;;;;;;;;;10.25;9.00;;;;;14.23;39.50;101072.88;5061198;28;45327;-56
2023/04/20 02:33:32;;;;;;;;;10.75;8.00;;;;;14.21;39.56;101071.16;5061062;28;45478;-56
2023/04/20 02:35:57;;;;;;;;;9.50;8.75;;;;;14.19;39.44;101073.84;5061091;28;45400;-56
2023/04/20 02:38:22;;;;;;;;;11.25;9.50;;;;;14.16;39.90;101067.78;5060924;28;45356;-57
2023/04/20 02:40:48;;;;;;;;;9.00;8.00;;;;;14.13;39.41;101071.34;5061157;28;45486;-56
2023/04/20 02:43:13;;;;;;;;;5.25;5.25;;;;;14.10;39.83;101074.06;5061186;28;45171;-57
2023/04/20 02:45:38;;;;;;;;;7.50;7.50;;;;;14.07;39.74;101077.63;5061029;28;46178;-57
2023/04/20 02:48:04;;;;;;;;;9.75;9.00;;;;;14.04;39.76;101061.88;5060766;28;45236;-56
2023/04/20 02:50:30;;;;;;;;;7.50;7.00;;;;;14.03;39.63;101072.50;5060916;28;45262;-57
2023/04/20 02:52:55;;;;;;;;;11.00;8.50;;;;;14.01;39.87;101069.00;5061176;28;45446;-57
2023/04/20 02:55:20;;;;;;;;;5.50;5.25;;;;;13.97;39.93;101077.00;5060633;28;45171;-56
2023/04/20 02:57:45;;;;;;;;;11.00;9.75;;;;;13.94;39.63;101074.44;5042628;28;53952;-56
2023/04/20 03:00:12;;;;;;;;;9.25;9.25;;;;;13.90;39.71;101080.69;5060970;28;45150;-58
2023/04/20 03:02:38;;;;;;;;;9.50;8.50;;;;;13.89;39.67;101076.31;5060689;28;45491;-59
2023/04/20 03:05:03;;;;;;;;;8.25;7.00;;;;;13.86;39.81;101083.44;5060529;28;45204;-56
2023/04/20 03:07:30;;;;;;;;;8.75;6.75;;;;;13.82;39.71;101074.69;5060814;28;45448;-56
2023/04/20 03:09:55;;;;;;;;;10.25;7.50;;;;;13.74;39.35;101074.00;5060507;28;45397;-58
2023/04/20 03:12:21;;;;;;;;;9.50;8.25;;;;;13.77;39.95;101081.84;5060714;28;45333;-56
2023/04/20 03:14:46;;;;;;;;;9.50;7.00;;;;;13.74;39.91;101084.56;5059907;28;45247;-56
2023/04/20 03:17:12;;;;;;;;;6.00;6.00;;;;;13.72;39.70;101086.38;5060012;28;45459;-58
2023/04/20 03:19:37;;;;;;;;;6.75;6.75;;;;;13.70;40.14;101088.16;5060472;28;45439;-56
2023/04/20 03:22:03;;;;;;;;;9.50;9.50;;;;;13.67;39.88;101090.88;5060781;28;45473;-56
2023/04/20 03:24:28;;;;;;;;;10.00;7.00;;;;;13.64;39.83;101084.75;5060115;28;46386;-56
2023/04/20 03:26:54;;;;;;;;;7.75;7.75;;;;;13.60;39.79;101091.03;5060427;28;45254;-56
2023/04/20 03:29:19;;;;;;;;;9.00;8.00;;;;;13.57;39.90;101085.81;5060370;28;45224;-56
2023/04/20 03:31:44;;;;;;;;;7.75;7.25;;;;;13.55;39.78;101084.97;5060181;28;45471;-56
2023/04/20 03:34:10;;;;;;;;;10.75;9.00;;;;;13.51;40.19;101083.31;5041761;28;47228;-56
2023/04/20 03:36:36;;;;;;;;;9.00;8.00;;;;;13.50;39.82;101078.91;5060210;28;45210;-56
2023/04/20 03:39:03;;;;;;;;;4.00;4.00;;;;;13.48;39.78;101081.59;5042137;28;45462;-56
2023/04/20 03:41:29;;;;;;;;;8.25;7.00;;;;;13.44;39.99;101079.03;5042393;28;45819;-57
2023/04/20 03:43:55;;;;;;;;;6.00;5.25;;;;;13.40;40.06;101075.59;5059913;28;45404;-56
2023/04/20 03:46:20;;;;;;;;;8.75;8.75;;;;;13.43;39.78;101085.22;5060130;28;45316;-56
2023/04/20 03:48:45;;;;;;;;;7.75;6.50;;;;;13.42;40.05;101083.47;5060112;28;45300;-56
2023/04/20 03:51:11;;;;;;;;;7.75;7.75;;;;;13.39;40.17;101076.50;5060071;28;45349;-56
2023/04/20 03:53:36;;;;;;;;;8.00;8.00;;;;;13.36;40.19;101076.53;5041965;28;48168;-56
2023/04/20 03:56:01;;;;;;;;;10.25;10.25;;;;;13.37;40.21;101082.66;5057260;28;45525;-56
2023/04/20 03:58:26;;;;;;;;;10.25;7.00;;;;;13.34;39.88;101080.97;5059606;28;45274;-56
2023/04/20 04:00:52;;;;;;;;;7.75;6.50;;;;;13.32;40.33;101078.34;5041732;28;45329;-56
2023/04/20 04:03:17;;;;;;;;;8.00;7.50;;;;;13.30;40.09;101080.16;5059349;28;45549;-56
2023/04/20 04:05:42;;;;;;;;;9.75;9.00;;;;;13.25;39.85;101071.47;5059711;28;45396;-56
2023/04/20 04:08:08;;;;;;;;;6.75;6.75;;;;;13.24;40.32;101082.06;5059715;28;45498;-56
2023/04/20 04:10:33;;;;;;;;;8.00;6.00;;;;;13.23;40.24;101089.13;5059104;28;48449;-56
2023/04/20 04:12:58;;;;;;;;;4.25;3.75;;;;;13.21;40.02;101088.25;5059456;28;45293;-58
2023/04/20 04:15:24;;;;;;;;;10.00;9.00;;;;;13.19;40.31;101091.84;5059661;28;45309;-58
2023/04/20 04:17:49;;;;;;;;;8.00;7.00;;;;;13.15;40.12;101093.66;5058913;28;45325;-58
2023/04/20 04:20:15;;;;;;;;;7.00;7.00;;;;;13.12;40.30;101093.72;5059602;28;45181;-58
2023/04/20 04:22:40;;;;;;;;;9.75;8.25;;;;;13.09;40.20;101097.25;5059179;28;46401;-58
2023/04/20 04:25:06;;;;;;;;;9.25;8.75;;;;;13.06;40.17;101092.06;5058344;28;45289;-56
2023/04/20 04:27:36;;;;;;;;;13.50;11.75;;;;;13.03;40.00;101096.53;5057819;28;45408;-56
2023/04/20 04:30:03;;;;;;;;;9.00;6.50;;;;;13.01;40.23;101099.19;5058373;28;45545;-56
2023/04/20 04:32:29;;;;;;;;;9.00;7.25;;;;;13.00;40.23;101100.97;5040688;28;46163;-56
2023/04/20 04:34:54;;;;;;;;;7.25;7.25;;;;;12.97;40.40;101102.78;5058978;28;45248;-56
2023/04/20 04:37:19;;;;;;;;;8.25;7.50;;;;;12.95;40.05;101107.22;5058586;28;45677;-56
2023/04/20 04:39:45;;;;;;;;;6.50;6.25;;;;;12.90;40.32;101104.66;5059564;28;45450;-56
2023/04/20 04:42:10;;;;;;;;;6.75;6.75;;;;;12.88;39.95;101108.22;5059318;28;46218;-56
2023/04/20 04:44:36;;;;;;;;;7.25;6.75;;;;;12.84;40.40;101110.03;5059632;28;45219;-56
2023/04/20 04:47:04;;;;;;;;;8.25;6.00;;;;;12.80;40.43;101111.00;5060737;28;45304;-56
2023/04/20 04:49:30;;;;;;;;;10.00;7.75;;;;;12.78;39.94;101110.16;5062372;28;45560;-57
2023/04/20 04:51:55;;;;;;;;;7.00;6.50;;;;;12.73;40.06;101112.88;5062557;28;45505;-56
2023/04/20 04:54:20;;;;;;;;;7.75;7.00;;;;;12.71;40.08;101119.94;5044789;28;50010;-58
2023/04/20 04:56:45;;;;;;;;;9.25;7.25;;;;;12.69;40.16;101132.28;5063016;28;45284;-55
2023/04/20 04:59:11;;;;;;;;;8.75;7.00;;;;;12.67;40.07;101126.16;5062670;28;50487;-56
2023/04/20 05:01:36;;;;;;;;;9.25;8.50;;;;;12.65;40.16;101128.84;5062354;28;46018;-54
2023/04/20 05:04:01;;;;;;;;;10.00;7.25;;;;;12.63;40.12;101132.41;5062884;28;45352;-56
2023/04/20 05:06:27;;;;;;;;;8.75;7.75;;;;;12.60;40.10;101138.59;5062304;28;45368;-55
2023/04/20 05:08:52;;;;;;;;;6.00;6.00;;;;;12.58;40.42;101137.75;5062810;28;45420;-55
2023/04/20 05:11:18;;;;;;;;;9.25;8.00;;;;;12.55;40.17;101131.63;5062180;28;45242;-55
2023/04/20 05:13:43;;;;;;;;;9.75;7.75;;;;;12.51;40.23;101136.09;5062892;28;45299;-55
2023/04/20 05:16:08;;;;;;;;;9.00;6.50;;;;;12.50;40.11;101129.06;5062302;28;47018;-55
2023/04/20 05:18:34;;;;;;;;;8.25;8.25;;;;;12.49;40.28;101137.88;5062361;28;45337;-55
2023/04/20 05:21:00;;;;;;;;;9.50;8.00;;;;;12.48;40.19;101139.63;5062393;28;45243;-55
2023/04/20 05:23:26;;;;;;;;;8.50;7.50;;;;;12.47;40.28;101134.41;5062403;28;45178;-55
2023/04/20 05:25:51;;;;;;;;;7.25;7.00;;;;;12.45;40.23;101139.72;5062223;28;45209;-55
2023/04/20 05:28:17;;;;;;;;;8.75;8.75;;;;;12.43;40.32;101140.63;5043689;28;45246;-55
2023/04/20 05:30:43;;;;;;;;;8.00;8.00;;;;;12.42;40.21;101139.72;5061984;28;45233;-57
2023/04/20 05:33:08;;;;;;;;;10.25;10.25;;;;;12.40;40.28;101143.28;5043847;28;45391;-56
2023/04/20 05:35:33;;;;;;;;;8.00;8.00;;;;;12.39;40.23;101149.44;5062464;28;45529;-57
2023/04/20 05:38:01;;;;;;;;;6.75;5.50;;;;;12.39;40.23;101152.09;5061957;28;45317;-57
2023/04/20 05:40:26;;;;;;;;;8.75;7.75;;;;;12.37;40.30;101146.00;5061722;28;46975;-56
2023/04/20 05:42:52;;;;;;;;;8.50;8.50;;;;;12.34;40.26;101144.28;5062123;28;45297;-56
2023/04/20 05:45:17;;;;;;;;;10.50;8.75;;;;;12.31;40.14;101147.81;5062066;28;45320;-55
2023/04/20 05:47:54;;;;;;;;;10.00;8.00;;;;;12.30;40.20;101147.81;5043734;28;45527;-56
2023/04/20 05:50:21;;;;;;;;;9.50;9.00;;;;;12.28;40.23;101144.38;5061655;28;46209;-55
2023/04/20 05:52:47;;;;;;;;;10.25;8.75;;;;;12.26;40.19;101154.91;5061849;28;45225;-55
2023/04/20 05:55:13;;;;;;;;;10.25;8.00;;;;;12.24;40.34;101146.16;5060494;28;45416;-57
2023/04/20 05:57:41;;;;;;;;;9.50;8.50;;;;;12.23;40.17;101147.06;5061143;28;49378;-57
2023/04/20 06:00:11;;;;;;;;;10.50;10.25;;;;;12.23;40.26;101152.31;5060987;28;46607;-56
2023/04/20 06:02:37;;;;;;;;;10.75;9.50;;;;;12.24;40.23;101158.44;5061632;28;45364;-51
2023/04/20 06:05:02;;;;;;;;;9.00;7.75;;;;;12.19;40.17;101150.63;5061591;28;45171;-55
2023/04/20 06:07:27;;;;;;;;;10.00;7.00;;;;;12.19;40.34;101159.41;5043544;28;45256;-56
2023/04/20 06:09:53;;;;;;;;;8.00;7.00;;;;;12.18;40.35;101152.38;5056115;28;45532;-60
2023/04/20 06:12:18;;;;;;;;;10.00;8.50;;;;;12.19;40.25;101148.84;5040818;28;45592;-61
2023/04/20 06:14:43;;;;;;;;;9.50;9.00;;;;;12.22;40.49;101153.22;5061466;28;45459;-62
2023/04/20 06:17:09;;;;;;;;;8.00;8.00;;;;;12.19;40.26;101138.31;5060765;28;45406;-62
2023/04/20 06:19:34;;;;;;;;;13.75;12.25;;;;;12.16;40.20;101133.09;5059817;28;45992;-62
2023/04/20 06:22:00;;;;;;;;;7.50;7.50;;;;;12.21;40.51;101148.81;5061154;28;45412;-62
2023/04/20 06:24:26;;;;;;;;;8.00;8.00;;;;;12.22;40.18;101147.09;5043136;28;45317;-62
2023/04/20 06:26:52;;;;;;;;;9.25;9.25;;;;;12.21;40.22;101147.97;5060775;28;45699;-62
2023/04/20 06:29:17;;;;;;;;;7.75;6.75;;;;;12.23;40.25;101143.56;5060771;28;45303;-57
2023/04/20 06:31:42;;;;;;;;;9.50;8.00;;;;;12.24;40.40;101153.19;5060775;28;45324;-57
2023/04/20 06:34:08;;;;;;;;;7.75;7.25;;;;;12.25;40.43;101149.66;5060939;28;45335;-57
2023/04/20 06:36:33;;;;;;;;;10.25;8.00;;;;;12.26;40.34;101154.03;5060241;28;51014;-57
2023/04/20 06:38:58;;;;;;;;;13.75;11.00;;;;;12.25;40.17;101145.28;5060161;28;46195;-57
2023/04/20 06:41:23;;;;;;;;;11.50;10.25;;;;;12.28;40.20;101147.84;5060518;28;58461;-57
2023/04/20 06:43:49;;;;;;;;;9.50;9.50;;;;;12.30;40.42;101156.63;5061346;28;51362;-57
2023/04/20 06:46:14;;;;;;;;;9.75;8.00;;;;;12.31;40.34;101146.94;5059319;28;45515;-57
2023/04/20 06:48:39;;;;;;;;;11.25;7.50;;;;;12.31;40.56;101149.56;5060186;28;47648;-57
2023/04/20 06:51:05;;;;;;;;;7.75;7.75;;;;;12.32;40.26;101143.41;5042496;28;45544;-57
2023/04/20 06:53:30;;;;;;;;;11.00;9.25;;;;;12.32;40.34;101146.03;5060550;28;45343;-57
2023/04/20 06:55:56;;;;;;;;;22.25;18.25;;;;;12.32;40.40;101151.31;5060565;28;47699;-57
2023/04/20 06:58:21;;;;;;;;;11.50;9.25;;;;;12.32;40.31;101151.31;5060591;28;45242;-57
2023/04/20 07:00:46;;;;;;;;;10.50;9.50;;;;;12.33;40.34;101145.16;5060488;28;49025;-57
2023/04/20 07:03:11;;;;;;;;;5.75;5.75;;;;;12.33;40.19;101148.66;5060298;28;46284;-57
2023/04/20 07:05:37;;;;;;;;;12.00;10.50;;;;;12.35;40.28;101141.59;5060415;28;45475;-58
2023/04/20 07:08:02;;;;;;;;;8.25;8.25;;;;;12.36;40.39;101139.81;5059001;28;46067;-57
2023/04/20 07:10:27;;;;;;;;;15.00;14.75;;;;;12.37;40.33;101146.00;5059784;28;45335;-57
2023/04/20 07:12:53;;;;;;;;;9.00;9.00;;;;;12.37;40.33;101148.63;5060769;28;45309;-57
2023/04/20 07:15:18;;;;;;;;;10.25;10.25;;;;;12.38;40.24;101152.97;5060244;28;45168;-57
2023/04/20 07:17:43;;;;;;;;;17.75;12.75;;;;;12.41;40.46;101160.84;5059671;28;45397;-57
2023/04/20 07:20:09;;;;;;;;;6.50;6.50;;;;;12.40;40.35;101159.09;5060025;28;52471;-57
2023/04/20 07:22:36;;;;;;;;;10.00;9.00;;;;;12.42;40.06;101154.69;5060623;28;45426;-57
2023/04/20 07:25:03;;;;;;;;;11.25;9.00;;;;;12.44;40.22;101153.78;5059856;28;45602;-57
2023/04/20 07:27:29;;;;;;;;;10.75;10.25;;;;;12.44;40.26;101150.25;5057917;28;46200;-57
2023/04/20 07:29:57;;;;;;;;;10.75;9.00;;;;;12.46;40.34;101149.31;5059205;28;45433;-57
2023/04/20 07:32:23;;;;;;;;;10.75;10.25;;;;;12.48;40.07;101150.19;5050274;28;45399;-57
2023/04/20 07:34:48;;;;;;;;;10.75;10.25;;;;;12.50;40.12;101143.13;5043163;28;45240;-57
2023/04/20 07:37:14;;;;;;;;;10.00;10.00;;;;;12.51;40.16;101144.88;5059667;28;45486;-57
2023/04/20 07:39:39;;;;;;;;;13.00;11.50;;;;;12.55;40.34;101136.91;5057294;28;45488;-58
2023/04/20 07:42:04;;;;;;;;;4.75;3.75;;;;;12.58;40.32;101137.75;5060043;28;45422;-57
2023/04/20 07:44:30;;;;;;;;;11.50;11.00;;;;;12.59;40.20;101134.22;5059470;28;45489;-57
2023/04/20 07:46:56;;;;;;;;;10.50;10.50;;;;;12.61;40.12;101126.28;5059440;28;46269;-57
2023/04/20 07:49:22;;;;;;;;;16.00;12.75;;;;;12.61;40.37;101129.75;5059378;28;45460;-57
2023/04/20 07:51:47;;;;;;;;;11.50;11.25;;;;;12.66;40.33;101133.19;5059761;28;45512;-57
2023/04/20 07:54:12;;;;;;;;;19.25;14.50;;;;;12.69;40.42;101134.91;5058974;28;48200;-57
2023/04/20 07:56:38;;;;;;;;;14.25;12.00;;;;;12.61;40.30;101115.72;5059436;28;45450;-57
2023/04/20 07:59:03;;;;;;;;;12.75;12.75;;;;;12.75;40.24;101131.31;5059378;28;45408;-57
2023/04/20 08:01:28;;;;;;;;;14.00;10.50;;;;;12.77;40.31;101132.16;5059269;28;45298;-57
2023/04/20 08:03:54;;;;;;;;;14.50;14.00;;;;;12.82;40.24;101135.59;5057944;28;46297;-57
2023/04/20 08:06:20;;;;;;;;;15.50;15.00;;;;;12.84;40.26;101134.66;5039687;28;46431;-57
2023/04/20 08:08:45;;;;;;;;;13.75;11.00;;;;;12.87;40.36;101132.84;5058088;28;45496;-57
2023/04/20 08:11:11;;;;;;;;;14.00;12.00;;;;;12.91;40.55;101126.66;5059583;28;45299;-57
2023/04/20 08:13:37;;;;;;;;;13.00;11.75;;;;;12.95;40.41;101133.59;5059533;28;45340;-57
2023/04/20 08:16:02;;;;;;;;;12.50;11.25;;;;;13.00;40.56;101131.75;5059920;28;45163;-57
2023/04/20 08:18:29;;;;;;;;;12.00;12.00;;;;;12.97;40.22;101116.00;5040236;28;45252;-57
2023/04/20 08:20:55;;;;;;;;;13.25;10.75;;;;;13.08;40.32;101121.03;5059045;28;45449;-57
2023/04/20 08:23:26;;;;;;;;;14.00;12.50;;;;;13.13;40.26;101124.47;5062467;28;45324;-57
2023/04/20 08:25:51;;;;;;;;;14.00;13.00;;;;;13.16;39.97;101114.72;5063091;28;45162;-57
2023/04/20 08:28:17;;;;;;;;;15.00;12.75;;;;;13.20;40.55;101110.28;5062739;28;45187;-57
2023/04/20 08:30:42;;;;;;;;;16.00;13.75;;;;;13.25;40.74;101094.34;5063010;28;45568;-57
2023/04/20 08:33:07;;;;;;;;;18.00;16.00;;;;;13.29;40.23;101104.78;5050667;28;45471;-57
2023/04/20 08:35:32;;;;;;;;;17.50;15.00;;;;;13.34;40.40;101102.06;5054510;28;52093;-57
2023/04/20 08:37:58;;;;;;;;;14.25;12.00;;;;;13.37;40.37;101095.88;5062468;28;45272;-57
2023/04/20 08:40:23;;;;;;;;;12.50;12.00;;;;;13.41;40.17;101089.66;5063037;28;45501;-57
2023/04/20 08:42:49;;;;;;;;;13.50;13.50;;;;;13.47;40.48;101100.97;5062228;28;45667;-57
2023/04/20 08:45:14;;;;;;;;;16.00;14.25;;;;;13.51;40.22;101098.25;5062835;28;46593;-57
2023/04/20 08:47:41;;;;;;;;;17.00;12.75;;;;;13.55;40.50;101098.16;5062384;28;45411;-57
2023/04/20 08:50:08;;;;;;;;;16.75;14.75;;;;;13.61;40.44;101105.06;5054134;28;45301;-58
2023/04/20 08:52:34;;;;;;;;;9.25;9.00;;;;;13.63;40.33;101090.97;5059607;28;45279;-58
2023/04/20 08:55:00;;;;;;;;;17.00;14.50;;;;;13.68;40.06;101101.41;5062294;28;46025;-58
2023/04/20 08:57:26;;;;;;;;;12.00;12.00;;;;;13.72;40.27;101092.53;5062453;28;45469;-59
2023/04/20 08:59:51;;;;;;;;;16.75;14.75;;;;;13.79;40.27;101090.63;5062789;28;45521;-58
2023/04/20 09:02:16;;;;;;;;;17.50;15.75;;;;;13.84;40.09;101087.91;5043777;28;45506;-58
2023/04/20 09:04:42;;;;;;;;;14.75;13.25;;;;;13.88;40.00;101079.84;5044032;28;46826;-58
2023/04/20 09:07:19;;;;;;;;;15.25;14.75;;;;;13.95;40.15;101080.59;5061746;28;45233;-56
2023/04/20 09:09:55;;;;;;;;;14.00;12.75;;;;;14.01;40.22;101083.06;5057353;28;45419;-56
2023/04/20 09:12:21;;;;;;;;;17.75;13.00;;;;;14.08;40.03;101084.66;5060898;28;45347;-56
2023/04/20 09:14:47;;;;;;;;;17.00;16.25;;;;;14.14;39.94;101081.03;5062319;28;45972;-57
2023/04/20 09:17:14;;;;;;;;;16.00;16.00;;;;;14.22;40.19;101068.47;5062739;28;45412;-57
2023/04/20 09:19:43;;;;;;;;;19.75;16.75;;;;;14.29;40.02;101069.22;5062394;28;45234;-57
2023/04/20 09:22:08;;;;;;;;;15.25;13.75;;;;;14.36;40.13;101068.16;5043916;28;45960;-57
2023/04/20 09:24:35;;;;;;;;;18.75;17.50;;;;;14.42;40.17;101067.13;5061782;28;46082;-57
2023/04/20 09:27:22;;;;;;;;;18.00;16.25;;;;;14.50;40.08;101057.22;5044084;28;45415;-57
2023/04/20 09:30:02;;;;;;;;;16.75;16.50;;;;;14.58;40.39;101052.63;5061672;28;45252;-57
2023/04/20 09:32:28;;;;;;;;;18.75;16.25;;;;;14.65;39.68;101057.78;5061808;28;45402;-58
2023/04/20 09:34:54;;;;;;;;;15.75;15.00;;;;;14.73;40.21;101053.13;5061021;28;45603;-57
2023/04/20 09:37:21;;;;;;;;;16.50;15.50;;;;;14.78;39.97;101049.47;5052300;28;45356;-57
2023/04/20 09:39:47;;;;;;;;;18.00;15.00;;;;;14.86;39.86;101046.63;5060319;28;45439;-57
2023/04/20 09:42:15;;;;;;;;;14.75;13.00;;;;;14.94;40.04;101034.06;5060593;28;45373;-57
2023/04/20 09:44:41;;;;;;;;;18.75;14.50;;;;;15.04;39.75;101033.78;5061670;28;45247;-57
2023/04/20 09:47:07;;;;;;;;;15.75;12.75;;;;;15.13;39.33;101019.44;5061563;28;45403;-57
2023/04/20 09:49:33;;;;;;;;;12.00;12.00;;;;;15.22;39.52;101035.91;5061577;28;45339;-57
2023/04/20 09:52:02;;;;;;;;;19.50;14.75;;;;;15.32;39.86;101019.75;5060315;28;45254;-57
2023/04/20 09:54:28;;;;;;;;;15.25;13.75;;;;;15.47;39.42;101021.09;5061101;28;46378;-57
2023/04/20 09:56:54;;;;;;;;;14.50;11.75;;;;;15.60;39.67;101011.84;5061628;28;45285;-57
2023/04/20 09:59:20;;;;;;;;;11.75;10.50;;;;;15.77;39.53;101025.44;5061749;28;45328;-57
2023/04/20 10:01:45;;;;;;;;;13.00;10.25;;;;;15.93;39.42;101014.38;5061561;28;45278;-57
2023/04/20 10:04:13;;;;;;;;;11.00;11.00;;;;;16.12;39.29;101009.34;5045538;28;48357;-57
2023/04/20 10:06:39;;;;;;;;;17.50;15.50;;;;;16.32;39.44;101005.16;5050706;28;45349;-57
2023/04/20 10:09:07;;;;;;;;;13.25;12.00;;;;;16.53;39.64;101007.06;5050074;28;45348;-57
2023/04/20 10:11:37;;;;;;;;;12.25;12.25;;;;;16.75;39.71;100998.34;5061378;28;45300;-57
2023/04/20 10:14:22;;;;;;;;;11.25;9.00;;;;;17.03;39.66;101005.34;5061194;28;46083;-57
2023/04/20 10:17:02;;;;;;;;;14.50;13.25;;;;;17.28;39.79;100997.34;5060745;28;45249;-57
2023/04/20 10:19:37;;;;;;;;;11.25;10.25;;;;;17.54;39.83;101000.75;5061523;28;45461;-56
2023/04/20 10:22:03;;;;;;;;;14.00;13.00;;;;;17.80;39.99;100985.59;5061166;28;45547;-57
2023/04/20 10:24:29;;;;;;;;;12.00;11.00;;;;;18.03;39.70;100987.31;5060708;28;46128;-57
2023/04/20 10:26:54;;;;;;;;;15.00;11.00;;;;;18.31;39.67;100984.38;5060992;28;45229;-57
2023/04/20 10:29:27;;;;;;;;;12.25;7.50;;;;;18.58;39.82;100985.88;5061258;28;45761;-57
2023/04/20 10:31:54;;;;;;;;;12.75;11.75;;;;;18.82;40.22;100994.59;5058939;28;45439;-56
2023/04/20 10:34:33;;;;;;;;;11.25;11.25;;;;;19.04;39.71;100993.66;5060903;28;46324;-57
2023/04/20 10:37:12;;;;;;;;;12.50;12.25;;;;;19.22;39.51;100994.59;5039785;28;45193;-57
2023/04/20 10:39:45;;;;;;;;;12.75;11.50;;;;;19.34;39.28;100988.69;5060553;28;45379;-57
2023/04/20 10:42:11;;;;;;;;;11.00;11.00;;;;;19.43;39.22;100977.63;5060787;28;45482;-56
2023/04/20 10:44:50;;;;;;;;;14.75;13.50;;;;;19.53;39.45;100966.50;5041610;28;45294;-57
2023/04/20 10:47:17;;;;;;;;;14.50;10.25;;;;;19.60;38.87;100970.63;5060417;28;45333;-56
2023/04/20 10:49:42;;;;;;;;;15.50;13.50;;;;;19.62;38.70;100976.72;5042490;28;45551;-56
2023/04/20 10:52:08;;;;;;;;;9.00;6.50;;;;;19.64;39.00;100978.38;5060619;28;45284;-56
2023/04/20 10:54:40;;;;;;;;;12.50;11.25;;;;;19.62;38.81;100979.38;5048726;28;45293;-57
2023/04/20 10:57:06;;;;;;;;;14.50;13.50;;;;;19.59;38.38;100979.53;5059103;28;45489;-56
2023/04/20 10:59:36;;;;;;;;;15.75;12.75;;;;;19.53;38.15;100983.34;5057700;28;45252;-55
2023/04/20 11:02:06;;;;;;;;;15.25;12.50;;;;;19.46;38.41;100979.28;5059708;28;45435;-56
2023/04/20 11:04:32;;;;;;;;;13.25;12.00;;;;;19.35;38.48;100977.09;5034456;28;46219;-55
2023/04/20 11:07:08;;;;;;;;;10.75;10.25;;;;;19.21;37.96;100975.09;5060027;28;45433;-55
2023/04/20 11:09:35;;;;;;;;;12.75;10.50;;;;;19.13;37.89;100971.91;5053868;28;45388;-56
2023/04/20 11:12:01;;;;;;;;;11.25;8.75;;;;;19.02;37.99;100967.09;5055644;28;45739;-56